Time;durP1;ratioP1;P1;durP2;ratioP2;P2;SDS_P1;SDS_P2;PMS_P1;PMS_P2;Temp;Humidity;BMP_temperature;BMP_pressure;BME280_temperature;BME280_humidity;BME280_pressure;Samples;Min_cycle;Max_cycle;Signal;HPM_P1;HPM_P2
2024/01/26 00:01:26;;;;;;;14.67;5.43;;;;;;;;;;5055665;28;20250;-48
2024/01/26 00:03:53;;;;;;;20.70;5.67;;;;;;;;;;5055259;28;20192;-48
2024/01/26 00:06:19;;;;;;;20.13;6.00;;;;;;;;;;5055579;28;20622;-48
2024/01/26 00:08:45;;;;;;;23.83;6.23;;;;;;;;;;5055683;28;20204;-48
2024/01/26 00:11:14;;;;;;;16.93;5.43;;;;;;;;;;5055434;28;20228;-48
2024/01/26 00:13:40;;;;;;;17.83;6.10;;;;;;;;;;5055420;28;20267;-48
2024/01/26 00:16:06;;;;;;;18.37;6.17;;;;;;;;;;5054980;28;20231;-48
2024/01/26 00:18:32;;;;;;;19.23;6.03;;;;;;;;;;5055325;28;20224;-48
2024/01/26 00:21:00;;;;;;;18.67;6.23;;;;;;;;;;5055428;28;20223;-48
2024/01/26 00:23:26;;;;;;;15.80;6.67;;;;;;;;;;5055292;28;20203;-47
2024/01/26 00:25:52;;;;;;;15.50;5.60;;;;;;;;;;5055360;28;20291;-48
2024/01/26 00:28:17;;;;;;;20.03;6.90;;;;;;;;;;5054667;28;20204;-47
2024/01/26 00:30:44;;;;;;;24.90;6.83;;;;;;;;;;5055269;28;20242;-48
2024/01/26 00:33:10;;;;;;;20.03;6.77;;;;;;;;;;5055075;28;20287;-48
2024/01/26 00:35:35;;;;;;;26.47;7.43;;;;;;;;;;5055052;28;20236;-48
2024/01/26 00:38:03;;;;;;;18.80;6.97;;;;;;;;;;5055016;28;20254;-48
2024/01/26 00:40:29;;;;;;;18.63;7.33;;;;;;;;;;5054398;28;20549;-48
2024/01/26 00:42:55;;;;;;;15.93;6.57;;;;;;;;;;5055098;28;20197;-48
2024/01/26 00:45:21;;;;;;;18.90;8.40;;;;;;;;;;5053939;28;20266;-48
2024/01/26 00:47:47;;;;;;;18.60;8.17;;;;;;;;;;5054884;28;20287;-48
2024/01/26 00:50:13;;;;;;;18.97;7.73;;;;;;;;;;5054769;28;20724;-48
2024/01/26 00:52:39;;;;;;;21.97;8.17;;;;;;;;;;5054357;28;20766;-47
2024/01/26 00:55:06;;;;;;;20.73;8.40;;;;;;;;;;5054915;28;20275;-47
2024/01/26 00:57:33;;;;;;;18.73;8.23;;;;;;;;;;5054646;28;20686;-47
2024/01/26 01:00:07;;;;;;;18.93;7.87;;;;;;;;;;5054690;28;20207;-47
2024/01/26 01:02:33;;;;;;;19.90;8.63;;;;;;;;;;5054495;28;20199;-47
2024/01/26 01:04:59;;;;;;;20.23;9.00;;;;;;;;;;5054149;28;20189;-47
2024/01/26 01:07:25;;;;;;;23.30;9.60;;;;;;;;;;5054396;28;20279;-47
2024/01/26 01:09:51;;;;;;;23.67;9.57;;;;;;;;;;5054507;28;20224;-47
2024/01/26 01:12:19;;;;;;;18.60;8.53;;;;;;;;;;5054232;28;20208;-47
2024/01/26 01:14:47;;;;;;;26.03;8.80;;;;;;;;;;5054550;28;20250;-48
2024/01/26 01:17:13;;;;;;;27.07;10.17;;;;;;;;;;5053937;28;20228;-47
2024/01/26 01:19:39;;;;;;;22.13;8.63;;;;;;;;;;5054186;28;20180;-47
2024/01/26 01:22:05;;;;;;;21.23;9.77;;;;;;;;;;5054382;28;20207;-47
2024/01/26 01:24:31;;;;;;;30.53;10.27;;;;;;;;;;5050260;28;20716;-49
2024/01/26 01:26:57;;;;;;;26.73;11.13;;;;;;;;;;5052564;28;20196;-48
2024/01/26 01:29:25;;;;;;;29.80;10.97;;;;;;;;;;5053692;28;20250;-48
2024/01/26 01:31:51;;;;;;;21.37;10.50;;;;;;;;;;5053794;28;20913;-48
2024/01/26 01:34:16;;;;;;;21.87;11.07;;;;;;;;;;5053885;28;20203;-48
2024/01/26 01:36:42;;;;;;;28.87;10.97;;;;;;;;;;5053737;28;20273;-48
2024/01/26 01:39:08;;;;;;;29.77;11.00;;;;;;;;;;5053705;28;20208;-48
2024/01/26 01:41:34;;;;;;;25.70;11.73;;;;;;;;;;5053506;28;20702;-48
2024/01/26 01:44:00;;;;;;;30.63;11.67;;;;;;;;;;5053608;28;20219;-48
2024/01/26 01:46:28;;;;;;;26.20;11.80;;;;;;;;;;5053528;28;20333;-48
2024/01/26 01:48:54;;;;;;;31.97;12.97;;;;;;;;;;5053537;28;20197;-48
2024/01/26 01:51:20;;;;;;;27.03;12.43;;;;;;;;;;5053357;28;20232;-47
2024/01/26 01:53:47;;;;;;;28.23;11.73;;;;;;;;;;5053581;28;20204;-47
2024/01/26 01:56:15;;;;;;;28.90;13.07;;;;;;;;;;5053420;28;20211;-47
2024/01/26 01:58:41;;;;;;;27.20;12.33;;;;;;;;;;5053406;28;20196;-47
2024/01/26 02:01:07;;;;;;;31.13;13.93;;;;;;;;;;5053216;28;20204;-48
2024/01/26 02:03:35;;;;;;;34.93;14.27;;;;;;;;;;5053136;28;20266;-47
2024/01/26 02:06:01;;;;;;;35.47;14.37;;;;;;;;;;5053294;28;20204;-47
2024/01/26 02:08:27;;;;;;;34.37;14.20;;;;;;;;;;5053072;28;20208;-47
2024/01/26 02:10:53;;;;;;;32.20;14.03;;;;;;;;;;5053162;28;20285;-47
2024/01/26 02:13:19;;;;;;;35.10;13.80;;;;;;;;;;5052866;28;20240;-47
2024/01/26 02:15:45;;;;;;;38.23;13.97;;;;;;;;;;5053193;28;20199;-47
2024/01/26 02:18:11;;;;;;;31.23;13.23;;;;;;;;;;5052993;28;20243;-47
2024/01/26 02:20:38;;;;;;;39.57;14.57;;;;;;;;;;5047711;28;20456;-47
2024/01/26 02:23:04;;;;;;;36.53;14.57;;;;;;;;;;5052943;28;20287;-47
2024/01/26 02:25:31;;;;;;;31.40;14.20;;;;;;;;;;5052866;28;20304;-47
2024/01/26 02:27:57;;;;;;;35.67;13.63;;;;;;;;;;5052916;28;20200;-47
2024/01/26 02:30:23;;;;;;;34.57;13.70;;;;;;;;;;5052607;28;20282;-47
2024/01/26 02:32:49;;;;;;;28.37;13.27;;;;;;;;;;5052778;28;20279;-47
2024/01/26 02:35:15;;;;;;;37.03;14.53;;;;;;;;;;5051095;28;20195;-47
2024/01/26 02:37:41;;;;;;;36.77;14.47;;;;;;;;;;5049383;28;20253;-47
2024/01/26 02:40:08;;;;;;;31.90;12.97;;;;;;;;;;5050970;28;20203;-47
2024/01/26 02:42:36;;;;;;;29.67;13.13;;;;;;;;;;5050857;28;20204;-47
2024/01/26 02:45:01;;;;;;;34.23;12.67;;;;;;;;;;5043959;28;20669;-47
2024/01/26 02:47:28;;;;;;;34.80;13.93;;;;;;;;;;5050837;28;20223;-47
2024/01/26 02:49:54;;;;;;;37.27;13.70;;;;;;;;;;5047362;28;20231;-47
2024/01/26 02:52:20;;;;;;;30.40;14.20;;;;;;;;;;5047232;28;20663;-46
2024/01/26 02:54:46;;;;;;;33.77;13.60;;;;;;;;;;5042388;28;20223;-47
2024/01/26 02:57:12;;;;;;;29.90;12.63;;;;;;;;;;5045681;28;20326;-47
2024/01/26 02:59:40;;;;;;;36.93;13.20;;;;;;;;;;5045479;28;20245;-47
2024/01/26 03:02:06;;;;;;;29.63;13.93;;;;;;;;;;5049040;28;20238;-47
2024/01/26 03:04:32;;;;;;;29.27;12.87;;;;;;;;;;5047232;28;20200;-47
2024/01/26 03:06:58;;;;;;;32.07;14.50;;;;;;;;;;5047264;28;20204;-47
2024/01/26 03:09:24;;;;;;;29.40;14.00;;;;;;;;;;5046511;28;20663;-47
2024/01/26 03:11:50;;;;;;;38.90;14.50;;;;;;;;;;5042007;28;20207;-47
2024/01/26 03:14:18;;;;;;;31.63;13.57;;;;;;;;;;5045220;28;20259;-47
2024/01/26 03:16:45;;;;;;;31.23;14.80;;;;;;;;;;5038421;28;20265;-47
2024/01/26 03:19:11;;;;;;;30.17;14.50;;;;;;;;;;5045387;28;20200;-46
2024/01/26 03:21:41;;;;;;;30.07;14.90;;;;;;;;;;5052009;28;20207;-47
2024/01/26 03:24:07;;;;;;;37.37;16.83;;;;;;;;;;5052193;28;20200;-47
2024/01/26 03:26:34;;;;;;;30.67;14.67;;;;;;;;;;5052005;28;20208;-46
2024/01/26 03:29:01;;;;;;;33.70;15.80;;;;;;;;;;5052073;28;20706;-47
2024/01/26 03:31:27;;;;;;;27.03;14.37;;;;;;;;;;5052038;28;20231;-47
2024/01/26 03:33:54;;;;;;;26.90;15.53;;;;;;;;;;5052070;28;20200;-47
2024/01/26 03:36:20;;;;;;;34.70;15.47;;;;;;;;;;5051859;28;20588;-47
2024/01/26 03:38:46;;;;;;;34.87;16.70;;;;;;;;;;5052058;28;20234;-47
2024/01/26 03:41:13;;;;;;;34.77;15.67;;;;;;;;;;5052049;28;20196;-47
2024/01/26 03:43:39;;;;;;;31.80;16.17;;;;;;;;;;5051813;28;20273;-47
2024/01/26 03:46:08;;;;;;;36.57;17.27;;;;;;;;;;5051931;28;20196;-47
2024/01/26 03:48:34;;;;;;;30.30;16.13;;;;;;;;;;5051802;28;20189;-47
2024/01/26 03:51:01;;;;;;;33.93;17.90;;;;;;;;;;5051859;28;20232;-47
2024/01/26 03:53:27;;;;;;;31.73;16.17;;;;;;;;;;5051794;28;20223;-47
2024/01/26 03:55:54;;;;;;;28.77;16.03;;;;;;;;;;5051868;28;20663;-46
2024/01/26 03:58:20;;;;;;;31.07;16.43;;;;;;;;;;5051761;28;20196;-47
2024/01/26 04:00:46;;;;;;;34.40;17.03;;;;;;;;;;5051686;28;20192;-47
2024/01/26 04:03:12;;;;;;;29.37;15.97;;;;;;;;;;5051721;28;20287;-47
2024/01/26 04:05:38;;;;;;;32.83;16.10;;;;;;;;;;5051669;28;20690;-46
2024/01/26 04:08:06;;;;;;;32.50;17.83;;;;;;;;;;5051674;28;20200;-46
2024/01/26 04:10:32;;;;;;;33.27;16.97;;;;;;;;;;5051491;28;20228;-46
2024/01/26 04:12:58;;;;;;;29.30;18.03;;;;;;;;;;5051541;28;20290;-46
2024/01/26 04:15:24;;;;;;;31.83;16.63;;;;;;;;;;5041205;28;20208;-48
2024/01/26 04:17:50;;;;;;;29.13;17.10;;;;;;;;;;5039573;28;20232;-47
2024/01/26 04:20:16;;;;;;;34.33;18.70;;;;;;;;;;5038462;28;20205;-47
2024/01/26 04:22:43;;;;;;;30.97;18.60;;;;;;;;;;5041435;28;20204;-47
2024/01/26 04:25:11;;;;;;;31.23;19.17;;;;;;;;;;5041431;28;20220;-47
2024/01/26 04:27:37;;;;;;;28.77;18.40;;;;;;;;;;5041383;28;20230;-47
2024/01/26 04:30:04;;;;;;;34.10;18.90;;;;;;;;;;5042866;28;20224;-47
2024/01/26 04:32:30;;;;;;;31.23;19.40;;;;;;;;;;5041240;28;20283;-47
2024/01/26 04:34:56;;;;;;;33.60;18.30;;;;;;;;;;5041342;28;20271;-47
2024/01/26 04:37:22;;;;;;;29.27;19.03;;;;;;;;;;5041301;28;20702;-47
2024/01/26 04:39:50;;;;;;;34.37;20.40;;;;;;;;;;5041261;28;20218;-47
2024/01/26 04:42:18;;;;;;;34.83;20.90;;;;;;;;;;5041221;28;20618;-47
2024/01/26 04:44:44;;;;;;;31.23;18.70;;;;;;;;;;5042776;28;20738;-47
2024/01/26 04:47:10;;;;;;;34.97;20.20;;;;;;;;;;5040940;28;20203;-47
2024/01/26 04:49:36;;;;;;;35.90;20.73;;;;;;;;;;5056242;28;20196;-46
2024/01/26 04:52:02;;;;;;;32.97;20.30;;;;;;;;;;5041016;28;20195;-47
2024/01/26 04:54:28;;;;;;;35.40;20.63;;;;;;;;;;5040957;28;20608;-46
2024/01/26 04:56:54;;;;;;;36.60;21.30;;;;;;;;;;5040795;28;20228;-46
2024/01/26 04:59:21;;;;;;;31.37;20.07;;;;;;;;;;5040799;28;20294;-47
2024/01/26 05:01:47;;;;;;;32.73;20.30;;;;;;;;;;5039246;28;20231;-47
2024/01/26 05:04:14;;;;;;;33.50;21.20;;;;;;;;;;5040938;28;20254;-47
2024/01/26 05:06:42;;;;;;;31.53;19.07;;;;;;;;;;5042470;28;20188;-47
2024/01/26 05:09:09;;;;;;;37.13;20.33;;;;;;;;;;5040819;28;20490;-47
2024/01/26 05:11:35;;;;;;;30.03;20.10;;;;;;;;;;5042314;28;20275;-46
2024/01/26 05:14:01;;;;;;;33.07;20.27;;;;;;;;;;5040495;28;20240;-46
2024/01/26 05:16:28;;;;;;;30.87;19.20;;;;;;;;;;5040577;28;20235;-47
2024/01/26 05:18:54;;;;;;;31.10;19.50;;;;;;;;;;5040386;28;20220;-47
2024/01/26 05:21:20;;;;;;;32.53;19.77;;;;;;;;;;5040440;28;20241;-46
2024/01/26 05:23:46;;;;;;;33.27;20.10;;;;;;;;;;5041996;28;20195;-47
2024/01/26 05:26:12;;;;;;;35.07;19.67;;;;;;;;;;5040859;28;20192;-47
2024/01/26 05:28:39;;;;;;;32.43;20.37;;;;;;;;;;5040136;28;20279;-47
2024/01/26 05:31:05;;;;;;;33.37;20.67;;;;;;;;;;5039927;28;20330;-47
2024/01/26 05:33:32;;;;;;;35.07;21.27;;;;;;;;;;5040187;28;20242;-47
2024/01/26 05:35:59;;;;;;;35.77;21.73;;;;;;;;;;5038577;28;20224;-46
2024/01/26 05:38:26;;;;;;;35.17;21.37;;;;;;;;;;5040158;28;20192;-46
2024/01/26 05:40:51;;;;;;;38.60;22.17;;;;;;;;;;5040102;28;20188;-46
2024/01/26 05:43:17;;;;;;;34.83;21.37;;;;;;;;;;5039840;28;20298;-47
2024/01/26 05:45:43;;;;;;;38.13;22.67;;;;;;;;;;5039895;28;20196;-46
2024/01/26 05:48:10;;;;;;;37.97;22.97;;;;;;;;;;5039938;28;20203;-47
2024/01/26 05:50:38;;;;;;;33.27;20.77;;;;;;;;;;5039764;28;20255;-46
2024/01/26 05:53:04;;;;;;;33.33;22.20;;;;;;;;;;5040021;28;20203;-46
2024/01/26 05:55:30;;;;;;;32.57;20.97;;;;;;;;;;5039893;28;20211;-47
2024/01/26 05:57:56;;;;;;;31.93;21.33;;;;;;;;;;5039771;28;20235;-47
2024/01/26 06:00:22;;;;;;;38.77;23.10;;;;;;;;;;5039729;28;20200;-47
2024/01/26 06:02:49;;;;;;;37.13;22.27;;;;;;;;;;5039566;28;20200;-47
2024/01/26 06:05:15;;;;;;;34.57;23.23;;;;;;;;;;5039773;28;20208;-47
2024/01/26 06:07:42;;;;;;;35.83;23.33;;;;;;;;;;5039492;28;20203;-47
2024/01/26 06:10:09;;;;;;;38.17;23.67;;;;;;;;;;5039587;28;20232;-47
2024/01/26 06:12:40;;;;;;;34.37;24.20;;;;;;;;;;5039342;28;20244;-46
2024/01/26 06:15:07;;;;;;;42.00;27.40;;;;;;;;;;5039332;28;20615;-46
2024/01/26 06:17:35;;;;;;;36.73;25.20;;;;;;;;;;5038843;28;20311;-47
2024/01/26 06:20:03;;;;;;;37.93;23.77;;;;;;;;;;5039272;28;20603;-47
2024/01/26 06:22:29;;;;;;;36.83;24.70;;;;;;;;;;5037604;28;20670;-47
2024/01/26 06:24:56;;;;;;;35.27;25.17;;;;;;;;;;5039317;28;20196;-47
2024/01/26 06:27:22;;;;;;;36.07;25.10;;;;;;;;;;5039110;28;20218;-47
2024/01/26 06:29:48;;;;;;;35.20;24.30;;;;;;;;;;5038895;28;20224;-47
2024/01/26 06:32:16;;;;;;;33.83;23.97;;;;;;;;;;5038978;28;20210;-47
2024/01/26 06:34:42;;;;;;;33.50;24.40;;;;;;;;;;5038610;28;20254;-47
2024/01/26 06:37:08;;;;;;;30.73;23.67;;;;;;;;;;5040736;28;20483;-47
2024/01/26 06:39:34;;;;;;;31.53;24.00;;;;;;;;;;5038876;28;20721;-46
2024/01/26 06:42:01;;;;;;;28.23;22.60;;;;;;;;;;5037255;28;20710;-46
2024/01/26 06:44:27;;;;;;;27.73;21.87;;;;;;;;;;5038267;28;20210;-47
2024/01/26 06:46:53;;;;;;;29.67;23.33;;;;;;;;;;5038898;28;20200;-46
2024/01/26 06:49:19;;;;;;;29.80;23.87;;;;;;;;;;5038904;28;20188;-47
2024/01/26 06:51:45;;;;;;;28.80;22.17;;;;;;;;;;5038844;28;20793;-47
2024/01/26 06:54:11;;;;;;;25.53;20.73;;;;;;;;;;5038918;28;20254;-47
2024/01/26 06:56:37;;;;;;;26.00;21.40;;;;;;;;;;5038811;28;20200;-47
2024/01/26 06:59:04;;;;;;;25.93;21.50;;;;;;;;;;5038639;28;20218;-47
2024/01/26 07:01:30;;;;;;;26.30;21.13;;;;;;;;;;5038750;28;20262;-47
2024/01/26 07:03:56;;;;;;;24.80;19.97;;;;;;;;;;5038615;28;20667;-47
2024/01/26 07:06:22;;;;;;;24.27;20.87;;;;;;;;;;5038592;28;20203;-47
2024/01/26 07:08:48;;;;;;;27.03;21.77;;;;;;;;;;5038500;28;20750;-47
2024/01/26 07:11:16;;;;;;;25.10;20.57;;;;;;;;;;5038646;28;20319;-47
2024/01/26 07:13:42;;;;;;;23.67;19.33;;;;;;;;;;5038154;28;20244;-47
2024/01/26 07:16:11;;;;;;;21.80;19.40;;;;;;;;;;5039239;28;20234;-47
2024/01/26 07:18:37;;;;;;;21.40;19.07;;;;;;;;;;5038234;28;20783;-47
2024/01/26 07:21:06;;;;;;;21.47;19.10;;;;;;;;;;5040192;28;20192;-47
2024/01/26 07:23:32;;;;;;;21.40;18.20;;;;;;;;;;5040152;28;20716;-47
2024/01/26 07:25:58;;;;;;;20.37;17.43;;;;;;;;;;5038345;28;20249;-47
2024/01/26 07:28:24;;;;;;;21.43;18.70;;;;;;;;;;5038373;28;20197;-47
2024/01/26 07:30:50;;;;;;;18.63;16.60;;;;;;;;;;5038149;28;20223;-47
2024/01/26 07:33:17;;;;;;;20.50;16.47;;;;;;;;;;5038401;28;20242;-47
2024/01/26 07:35:43;;;;;;;17.20;15.40;;;;;;;;;;5038384;28;21168;-47
2024/01/26 07:38:09;;;;;;;16.03;14.37;;;;;;;;;;5040000;28;20196;-47
2024/01/26 07:40:36;;;;;;;15.67;13.80;;;;;;;;;;5038022;28;20667;-47
2024/01/26 07:43:02;;;;;;;14.40;12.90;;;;;;;;;;5038299;28;20595;-47
2024/01/26 07:45:28;;;;;;;14.77;13.23;;;;;;;;;;5038286;28;20196;-47
2024/01/26 07:47:54;;;;;;;12.60;11.20;;;;;;;;;;5037357;28;20670;-47
2024/01/26 07:50:21;;;;;;;13.03;11.67;;;;;;;;;;5038045;28;20277;-47
2024/01/26 07:52:47;;;;;;;11.50;10.30;;;;;;;;;;5038058;28;20203;-47
2024/01/26 07:55:14;;;;;;;10.97;9.87;;;;;;;;;;5040241;28;20689;-47
2024/01/26 07:57:40;;;;;;;11.17;9.47;;;;;;;;;;5043674;28;20200;-47
2024/01/26 08:00:08;;;;;;;11.90;9.30;;;;;;;;;;5041688;28;20214;-47
2024/01/26 08:02:34;;;;;;;10.07;9.07;;;;;;;;;;5041892;28;20200;-47
2024/01/26 08:05:00;;;;;;;9.90;8.90;;;;;;;;;;5041893;28;20604;-47
2024/01/26 08:07:28;;;;;;;10.93;9.83;;;;;;;;;;5043575;28;20211;-47
2024/01/26 08:09:53;;;;;;;11.07;8.87;;;;;;;;;;5043341;28;20200;-47
2024/01/26 08:12:20;;;;;;;9.33;8.33;;;;;;;;;;5041633;28;20577;-47
2024/01/26 08:14:46;;;;;;;9.57;8.67;;;;;;;;;;5041660;28;20287;-48
2024/01/26 08:17:12;;;;;;;9.60;8.57;;;;;;;;;;5041677;28;20312;-47
2024/01/26 08:19:38;;;;;;;10.33;8.50;;;;;;;;;;5041379;28;20666;-47
2024/01/26 08:22:05;;;;;;;9.63;8.60;;;;;;;;;;5041261;28;20196;-47
2024/01/26 08:24:32;;;;;;;12.23;9.30;;;;;;;;;;5043401;28;20196;-47
2024/01/26 08:26:58;;;;;;;10.07;9.07;;;;;;;;;;5041637;28;20255;-48
2024/01/26 08:29:26;;;;;;;13.90;9.50;;;;;;;;;;5041535;28;20666;-48
2024/01/26 08:31:53;;;;;;;9.70;8.67;;;;;;;;;;5041168;28;20255;-48
2024/01/26 08:34:19;;;;;;;10.30;9.03;;;;;;;;;;5041298;28;20593;-47
2024/01/26 08:36:45;;;;;;;10.77;9.67;;;;;;;;;;5040862;28;20234;-47
2024/01/26 08:39:11;;;;;;;11.73;9.63;;;;;;;;;;5041274;28;20204;-47
2024/01/26 08:41:39;;;;;;;10.63;9.57;;;;;;;;;;5049595;28;20750;-47
2024/01/26 08:44:05;;;;;;;11.47;9.93;;;;;;;;;;5054689;28;20610;-47
2024/01/26 08:46:31;;;;;;;11.20;10.00;;;;;;;;;;5054928;28;20204;-48
2024/01/26 08:48:57;;;;;;;11.37;9.77;;;;;;;;;;5054642;28;20203;-49
2024/01/26 08:51:24;;;;;;;13.40;10.23;;;;;;;;;;5054765;28;20228;-51
2024/01/26 08:53:50;;;;;;;10.83;9.73;;;;;;;;;;5054544;28;20196;-51
2024/01/26 08:56:16;;;;;;;11.03;9.93;;;;;;;;;;5054742;28;20603;-48
2024/01/26 08:58:43;;;;;;;11.93;9.90;;;;;;;;;;5054531;28;20204;-47
2024/01/26 09:01:09;;;;;;;14.17;10.37;;;;;;;;;;5054440;28;20188;-48
2024/01/26 09:03:35;;;;;;;10.90;9.80;;;;;;;;;;5054352;28;20200;-47
2024/01/26 09:06:01;;;;;;;10.73;9.63;;;;;;;;;;5053714;28;20212;-48
2024/01/26 09:08:27;;;;;;;11.70;10.40;;;;;;;;;;5054574;28;20200;-46
2024/01/26 09:10:53;;;;;;;10.77;9.77;;;;;;;;;;5054061;28;20657;-47
2024/01/26 09:13:20;;;;;;;12.33;10.83;;;;;;;;;;5054132;28;20236;-46
2024/01/26 09:15:48;;;;;;;12.27;9.73;;;;;;;;;;5054275;28;20200;-47
2024/01/26 09:18:14;;;;;;;12.67;11.27;;;;;;;;;;5054244;28;20285;-47
2024/01/26 09:20:41;;;;;;;12.73;10.13;;;;;;;;;;5054252;28;20192;-46
2024/01/26 09:23:07;;;;;;;13.93;11.30;;;;;;;;;;5054121;28;20666;-46
2024/01/26 09:25:33;;;;;;;12.30;11.00;;;;;;;;;;5054172;28;20192;-47
2024/01/26 09:27:59;;;;;;;13.97;11.33;;;;;;;;;;5053881;28;20563;-49
2024/01/26 09:30:25;;;;;;;12.37;11.07;;;;;;;;;;5053916;28;20230;-46
2024/01/26 09:32:52;;;;;;;12.57;10.63;;;;;;;;;;5053907;28;20204;-46
2024/01/26 09:35:18;;;;;;;12.47;10.53;;;;;;;;;;5053938;28;20204;-46
2024/01/26 09:37:44;;;;;;;12.53;10.53;;;;;;;;;;5052052;28;20246;-46
2024/01/26 09:40:12;;;;;;;14.43;10.90;;;;;;;;;;5053579;28;20192;-46
2024/01/26 09:42:38;;;;;;;11.53;10.03;;;;;;;;;;5053416;28;20196;-47
2024/01/26 09:45:06;;;;;;;12.17;10.00;;;;;;;;;;5053266;28;20208;-47
2024/01/26 09:47:34;;;;;;;12.43;9.67;;;;;;;;;;5053294;28;20609;-47
2024/01/26 09:50:03;;;;;;;11.80;9.60;;;;;;;;;;5053537;28;20294;-47
2024/01/26 09:52:29;;;;;;;13.27;9.50;;;;;;;;;;5053287;28;20295;-47
2024/01/26 09:54:56;;;;;;;11.63;9.47;;;;;;;;;;5053172;28;20303;-47
2024/01/26 09:57:22;;;;;;;10.07;8.53;;;;;;;;;;5053129;28;20194;-48
2024/01/26 09:59:50;;;;;;;12.07;8.80;;;;;;;;;;5053020;28;20219;-48
2024/01/26 10:02:17;;;;;;;10.60;8.43;;;;;;;;;;5053182;28;20279;-48
2024/01/26 10:04:43;;;;;;;9.17;8.17;;;;;;;;;;5044725;28;20289;-48
2024/01/26 10:07:10;;;;;;;10.87;8.10;;;;;;;;;;5040262;28;20207;-48
2024/01/26 10:09:37;;;;;;;10.63;7.90;;;;;;;;;;5039451;28;20200;-48
2024/01/26 10:12:03;;;;;;;10.03;8.33;;;;;;;;;;5039176;28;20694;-48
2024/01/26 10:14:30;;;;;;;11.23;7.70;;;;;;;;;;5040929;28;20645;-47
2024/01/26 10:16:56;;;;;;;8.70;7.70;;;;;;;;;;5039216;28;20230;-47
2024/01/26 10:19:24;;;;;;;10.03;7.80;;;;;;;;;;5040009;28;20211;-47
2024/01/26 10:21:50;;;;;;;10.07;7.63;;;;;;;;;;5039093;28;20216;-47
2024/01/26 10:24:18;;;;;;;8.90;8.00;;;;;;;;;;5040892;28;20231;-47
2024/01/26 10:26:44;;;;;;;9.87;8.17;;;;;;;;;;5041137;28;20205;-47
2024/01/26 10:29:10;;;;;;;8.00;6.87;;;;;;;;;;5038904;28;20210;-47
2024/01/26 10:31:37;;;;;;;7.47;6.70;;;;;;;;;;5038792;28;20315;-47
2024/01/26 10:34:04;;;;;;;8.03;6.53;;;;;;;;;;5038740;28;20295;-47
2024/01/26 10:36:32;;;;;;;8.20;7.20;;;;;;;;;;5038954;28;20204;-47
2024/01/26 10:38:58;;;;;;;7.43;6.73;;;;;;;;;;5038895;28;20254;-47
2024/01/26 10:41:28;;;;;;;7.20;6.50;;;;;;;;;;5038895;28;20199;-47
2024/01/26 10:43:55;;;;;;;7.23;6.63;;;;;;;;;;5038649;28;20200;-47
2024/01/26 10:46:22;;;;;;;6.33;5.83;;;;;;;;;;5039113;28;20258;-46
2024/01/26 10:48:49;;;;;;;6.07;5.47;;;;;;;;;;5040437;28;20204;-47
2024/01/26 10:51:17;;;;;;;7.53;6.60;;;;;;;;;;5038703;28;20698;-46
2024/01/26 10:53:46;;;;;;;7.27;6.57;;;;;;;;;;5036920;28;20210;-47
2024/01/26 10:56:12;;;;;;;6.67;5.90;;;;;;;;;;5040391;28;20230;-47
2024/01/26 10:58:39;;;;;;;5.80;5.30;;;;;;;;;;5038349;28;20235;-47
2024/01/26 11:01:06;;;;;;;4.90;4.50;;;;;;;;;;5038343;28;20200;-47
2024/01/26 11:03:32;;;;;;;5.57;5.07;;;;;;;;;;5038429;28;20303;-47
2024/01/26 11:05:59;;;;;;;4.37;3.97;;;;;;;;;;5038351;28;20211;-47
2024/01/26 11:08:25;;;;;;;4.87;4.47;;;;;;;;;;5040188;28;20204;-47
2024/01/26 11:10:52;;;;;;;4.00;3.70;;;;;;;;;;5038145;28;20230;-47
2024/01/26 11:13:18;;;;;;;4.07;3.73;;;;;;;;;;5038132;28;20281;-47
2024/01/26 11:15:47;;;;;;;3.93;3.60;;;;;;;;;;5038371;28;21223;-47
2024/01/26 11:18:20;;;;;;;3.90;3.60;;;;;;;;;;5040063;28;20365;-46
2024/01/26 11:20:49;;;;;;;3.90;3.60;;;;;;;;;;5039940;28;20223;-49
2024/01/26 11:23:15;;;;;;;3.63;3.33;;;;;;;;;;5038256;28;20542;-48
2024/01/26 11:25:46;;;;;;;3.73;3.30;;;;;;;;;;5039815;28;20685;-48
2024/01/26 11:28:15;;;;;;;3.43;3.13;;;;;;;;;;5038281;28;20273;-48
2024/01/26 11:30:41;;;;;;;3.90;3.60;;;;;;;;;;5039589;28;20828;-49
2024/01/26 11:33:16;;;;;;;3.40;3.20;;;;;;;;;;5044175;28;20196;-46
2024/01/26 11:35:42;;;;;;;3.30;3.00;;;;;;;;;;5042594;28;20188;-49
2024/01/26 11:38:09;;;;;;;2.90;2.67;;;;;;;;;;5043545;28;20196;-50
2024/01/26 11:40:35;;;;;;;3.27;2.83;;;;;;;;;;5054383;28;20591;-48
2024/01/26 11:43:02;;;;;;;2.30;2.10;;;;;;;;;;5055892;28;20196;-48
2024/01/26 11:45:37;;;;;;;1.43;1.33;;;;;;;;;;5056183;28;20200;-47
2024/01/26 11:48:05;;;;;;;0.80;0.80;;;;;;;;;;5055987;28;20673;-48
2024/01/26 11:50:32;;;;;;;2.10;0.70;;;;;;;;;;5055951;28;20227;-48
2024/01/26 11:52:58;;;;;;;0.87;0.87;;;;;;;;;;5055930;28;20224;-48
2024/01/26 11:55:25;;;;;;;0.50;0.50;;;;;;;;;;5055864;28;20658;-48
2024/01/26 11:57:51;;;;;;;0.70;0.70;;;;;;;;;;5055699;28;20279;-45
2024/01/26 12:00:18;;;;;;;0.83;0.80;;;;;;;;;;5055862;28;20203;-46
2024/01/26 12:02:44;;;;;;;0.60;0.60;;;;;;;;;;5055729;28;20227;-48
2024/01/26 12:05:10;;;;;;;0.70;0.70;;;;;;;;;;5055645;28;20224;-48
2024/01/26 12:07:38;;;;;;;1.93;0.80;;;;;;;;;;5055565;28;20670;-48
2024/01/26 12:10:04;;;;;;;0.77;0.73;;;;;;;;;;5055408;28;20200;-48
2024/01/26 12:12:30;;;;;;;1.17;0.60;;;;;;;;;;5055406;28;20710;-48
2024/01/26 12:14:56;;;;;;;0.70;0.70;;;;;;;;;;5055474;28;20224;-48
2024/01/26 12:17:22;;;;;;;1.40;0.90;;;;;;;;;;5055419;28;20234;-46
2024/01/26 12:19:49;;;;;;;2.40;0.90;;;;;;;;;;5055107;28;20294;-46
2024/01/26 12:22:17;;;;;;;2.03;0.95;;;;;;;;;;5054054;28;20486;-48
2024/01/26 12:24:44;;;;;;;2.97;0.90;;;;;;;;;;5055343;28;20200;-48
2024/01/26 12:27:11;;;;;;;2.47;1.07;;;;;;;;;;5055089;28;20233;-48
2024/01/26 12:29:37;;;;;;;4.47;2.80;;;;;;;;;;5054978;28;20568;-48
2024/01/26 12:32:04;;;;;;;4.43;1.00;;;;;;;;;;5055028;28;20234;-48
2024/01/26 12:34:30;;;;;;;4.03;1.40;;;;;;;;;;5055207;28;20200;-45
2024/01/26 12:36:58;;;;;;;5.03;1.43;;;;;;;;;;5055008;28;20200;-47
2024/01/26 12:39:24;;;;;;;1.80;1.70;;;;;;;;;;5055041;28;20305;-48
2024/01/26 12:41:53;;;;;;;5.37;1.13;;;;;;;;;;5053793;28;20239;-47
2024/01/26 12:44:19;;;;;;;2.13;1.70;;;;;;;;;;5054929;28;20682;-46
2024/01/26 12:46:45;;;;;;;2.73;1.47;;;;;;;;;;5054931;28;20258;-46
2024/01/26 12:49:11;;;;;;;8.03;5.53;;;;;;;;;;5054748;28;20208;-46
2024/01/26 12:51:37;;;;;;;3.93;2.17;;;;;;;;;;5054691;28;20319;-46
2024/01/26 12:54:03;;;;;;;4.90;2.20;;;;;;;;;;5054628;28;20206;-46
2024/01/26 12:56:33;;;;;;;5.53;4.47;;;;;;;;;;5054582;28;20662;-46
2024/01/26 12:59:01;;;;;;;5.00;2.33;;;;;;;;;;5054526;28;20671;-46
2024/01/26 13:01:27;;;;;;;5.53;3.30;;;;;;;;;;5054558;28;20192;-46
2024/01/26 13:03:53;;;;;;;5.13;3.53;;;;;;;;;;5054490;28;20197;-47
2024/01/26 13:06:19;;;;;;;7.47;4.93;;;;;;;;;;5054262;28;20645;-48
2024/01/26 13:08:44;;;;;;;6.80;3.80;;;;;;;;;;5063774;28;20203;-47
2024/01/26 13:11:11;;;;;;;12.23;9.63;;;;;;;;;;5073812;28;20315;-47
2024/01/26 13:13:38;;;;;;;35.43;28.57;;;;;;;;;;5073824;28;20238;-47
2024/01/26 13:16:06;;;;;;;7.00;3.43;;;;;;;;;;5073845;28;20195;-48
2024/01/26 13:18:33;;;;;;;10.90;7.90;;;;;;;;;;5074087;28;20706;-48
2024/01/26 13:20:59;;;;;;;20.60;13.97;;;;;;;;;;5073886;28;20256;-48
2024/01/26 13:23:25;;;;;;;8.37;3.23;;;;;;;;;;5074042;28;20203;-47
2024/01/26 13:25:53;;;;;;;101.53;59.47;;;;;;;;;;5073620;28;20743;-48
2024/01/26 13:28:19;;;;;;;352.80;222.83;;;;;;;;;;5073818;28;20196;-47
2024/01/26 13:30:46;;;;;;;179.63;109.97;;;;;;;;;;5073816;28;20219;-47
2024/01/26 13:33:13;;;;;;;41.40;25.13;;;;;;;;;;5073647;28;20207;-47
2024/01/26 13:35:39;;;;;;;76.40;42.40;;;;;;;;;;5073914;28;20599;-50
2024/01/26 13:38:06;;;;;;;621.77;364.20;;;;;;;;;;5073333;28;20226;-47
2024/01/26 13:40:32;;;;;;;14.97;7.97;;;;;;;;;;5073812;28;20223;-47
2024/01/26 13:43:00;;;;;;;63.60;34.43;;;;;;;;;;5073570;28;20195;-47
2024/01/26 13:45:26;;;;;;;53.43;29.50;;;;;;;;;;5073571;28;20286;-47
2024/01/26 13:47:52;;;;;;;54.60;28.97;;;;;;;;;;5073157;28;20708;-48
2024/01/26 13:50:20;;;;;;;111.03;61.27;;;;;;;;;;5073039;28;20200;-48
2024/01/26 13:52:47;;;;;;;35.83;19.60;;;;;;;;;;5073360;28;20210;-48
2024/01/26 13:55:12;;;;;;;110.10;58.60;;;;;;;;;;5073235;28;20204;-48
2024/01/26 13:57:39;;;;;;;14.63;7.37;;;;;;;;;;5073356;28;20669;-48
2024/01/26 14:00:06;;;;;;;44.17;23.60;;;;;;;;;;5073204;28;20246;-48
2024/01/26 14:02:32;;;;;;;151.70;84.77;;;;;;;;;;5071042;28;20199;-46
2024/01/26 14:04:58;;;;;;;26.70;13.47;;;;;;;;;;5071631;28;20203;-46
2024/01/26 14:07:26;;;;;;;9.70;4.67;;;;;;;;;;5073288;28;20222;-46
2024/01/26 14:09:52;;;;;;;273.03;166.53;;;;;;;;;;5073206;28;20756;-46
2024/01/26 14:12:18;;;;;;;28.63;15.83;;;;;;;;;;5072685;28;20254;-46
2024/01/26 14:14:44;;;;;;;27.07;15.13;;;;;;;;;;5073358;28;20210;-46
2024/01/26 14:17:11;;;;;;;47.67;31.73;;;;;;;;;;5071172;28;20235;-46
2024/01/26 14:19:37;;;;;;;8.10;2.57;;;;;;;;;;5072647;28;20202;-45
2024/01/26 14:22:03;;;;;;;12.90;7.37;;;;;;;;;;5072324;28;20282;-46